Jbu Maas — 3EQY6 — position and weather

sailwx.info

Track history (hours):
 
Tides and Currents Weather Stations Pressure Air Temp Water Temp Dewpoint Dewpoint Depression Visibility Wind Speed Wind Dir Waves Ship Positions

Jbu Maas

Last reported at 2016-May-27 17:30 UTC. Time now 2016-May-27 18:10 UTC.
Position N 51°20' E 002°34'.

Length 126 m; draft 5.9 m.

Type: Tanker. MMSI: 372492000.

Date/timePositionNaut miles runAvg speedWind from/ knotsBaromVisibWave heightAir tempDewpointWater temp
2016-May-27 17:30N 51°20' E 002°34'0 0.0
2016-May-27 16:31N 51°20' E 002°34'0 0.1
2016-May-27 15:33N 51°20' E 002°34'0 0.0
2016-May-27 14:24N 51°20' E 002°34'0 0.0
2016-May-27 13:33N 51°20' E 002°34'0 0.0
2016-May-27 12:33N 51°20' E 002°33'0 0.0
2016-May-27 11:24N 51°20' E 002°33'0 0.0
2016-May-27 10:30N 51°20' E 002°33'0 0.0
2016-May-27 09:18N 51°20' E 002°33'0 0.0
2016-May-27 05:30N 51°20' E 002°34'0 0.0
2016-May-27 01:30N 51°20' E 002°34'0 0.0
2016-May-27 00:33N 51°20' E 002°33'0 0.0
2016-May-26 23:33N 51°20' E 002°33'0 0.0
2016-May-26 22:33N 51°20' E 002°33'0 0.0
2016-May-26 21:33N 51°20' E 002°33'0 0.0
2016-May-26 20:33N 51°20' E 002°33'0 0.0
2016-May-26 19:33N 51°20' E 002°33'0 0.0
2016-May-26 18:33N 51°20' E 002°33'0 0.1
2016-May-26 17:21N 51°20' E 002°34'0 0.0
2016-May-26 16:33N 51°20' E 002°34'0 0.0
2016-May-26 15:33N 51°20' E 002°34'0 0.1
2016-May-26 14:30N 51°20' E 002°34'0 0.0
2016-May-26 13:33N 51°20' E 002°34'0 0.0
2016-May-26 12:33N 51°20' E 002°33'0 0.0
2016-May-26 11:27N 51°20' E 002°33'0 0.0
2016-May-26 07:21N 51°20' E 002°33'0 0.1
2016-May-26 05:15N 51°20' E 002°34'0 0.0
2016-May-26 02:06N 51°20' E 002°34'0 0.0
2016-May-25 17:12N 51°20' E 002°34'0 0.0
2016-May-25 04:06N 51°20' E 002°34'0 0.0
2016-May-24 16:06N 51°20' E 002°34'0 0.0
2016-May-24 15:09N 51°20' E 002°34'0 0.1
2016-May-24 14:18N 51°20' E 002°34'4 0.6
2016-May-24 07:06N 51°24' E 002°33'2 0.2
2016-May-23 21:21N 51°26' E 002°35'0 0.0
2016-May-23 20:33N 51°26' E 002°35'1 0.5
2016-May-23 19:29N 51°25' E 002°35'6 6.2
2016-May-23 18:33N 51°21' E 002°28'1413.6
2016-May-23 17:33N 51°19' E 002°07'1111.0
2016-May-23 16:33N 51°29' E 001°59'18814.4
2016-May-23 03:27N 54°04' E 004°55'1516.6
2016-May-23 02:33N 54°06' E 005°20'1716.6
2016-May-23 01:33N 54°09' E 005°48'1816.3
2016-May-23 00:26N 54°11' E 006°18'1415.9
2016-May-22 23:33N 54°12' E 006°43'1515.3
2016-May-22 22:33N 54°12' E 007°09'1515.2
2016-May-22 21:33N 54°12' E 007°35'1514.5
2016-May-22 20:34N 54°05' E 007°56'1312.9
2016-May-22 19:34N 54°00' E 008°16'1716.6
2016-May-22 18:32N 53°53' E 008°43'1616.3
2016-May-22 17:34N 53°53' E 009°09'1413.8
2016-May-22 16:33N 53°44' E 009°27'4 3.9
2016-May-22 15:33N 53°40' E 009°30'0 0.0
2016-May-22 14:33N 53°40' E 009°30'1 1.3
2016-May-22 13:30N 53°39' E 009°31'0 0.0
2016-May-22 12:24N 53°39' E 009°31'0 0.0
2016-May-22 11:33N 53°39' E 009°31'0 0.0
2016-May-22 10:33N 53°39' E 009°31'0 0.0
2016-May-22 09:33N 53°39' E 009°31'0 0.0
2016-May-22 08:30N 53°39' E 009°31'0 0.0
2016-May-22 07:30N 53°39' E 009°31'0 0.0
2016-May-22 06:30N 53°39' E 009°31'0 0.0
2016-May-22 05:33N 53°39' E 009°31'0 0.0
2016-May-22 04:33N 53°39' E 009°31'0 0.0
2016-May-22 03:33N 53°39' E 009°31'0 0.0
2016-May-22 02:30N 53°39' E 009°31'0 0.0
2016-May-22 01:30N 53°39' E 009°31'0 0.0
2016-May-22 00:30N 53°39' E 009°31'0 0.0
2016-May-21 23:33N 53°39' E 009°31'0 0.0
2016-May-21 22:33N 53°39' E 009°31'0 0.0
2016-May-21 21:33N 53°39' E 009°31'0 0.0
2016-May-21 20:33N 53°39' E 009°31'0 0.0
2016-May-21 19:30N 53°39' E 009°31'0 0.1
2016-May-21 18:34N 53°39' E 009°31'9 8.9
2016-May-21 17:33N 53°47' E 009°23'1010.4
2016-May-21 16:33N 53°53' E 009°09'1110.8
2016-May-21 15:33N 53°50' E 008°51'1010.2
2016-May-21 14:33N 53°57' E 008°38'1313.4
2016-May-21 13:33N 53°60' E 008°16'1111.2
2016-May-21 12:33N 54°01' E 007°57'5 4.8
2016-May-21 11:33N 54°03' E 007°50'3 2.6
2016-May-21 10:31N 54°04' E 007°45'0 0.0
2016-May-21 09:31N 54°04' E 007°45'0 0.0
2016-May-21 08:28N 54°04' E 007°45'0 0.0
2016-May-21 07:28N 54°04' E 007°45'0 0.1
2016-May-21 06:31N 54°04' E 007°45'0 0.1
2016-May-21 05:31N 54°04' E 007°45'0 0.0
2016-May-21 04:31N 54°04' E 007°45'0 0.0
2016-May-21 03:31N 54°04' E 007°45'0 0.0
2016-May-21 02:31N 54°04' E 007°45'0 0.0
2016-May-21 01:31N 54°04' E 007°45'0 0.0
2016-May-21 00:31N 54°04' E 007°45'0 0.1
2016-May-20 23:31N 54°04' E 007°45'0 0.1
2016-May-20 22:31N 54°04' E 007°45'0 0.0
2016-May-20 21:28N 54°04' E 007°45'0 0.0
2016-May-20 20:31N 54°04' E 007°45'0 0.0
2016-May-20 19:31N 54°04' E 007°45'0 0.0
2016-May-20 18:31N 54°04' E 007°45'0 0.1
2016-May-20 17:28N 54°04' E 007°45'0 0.1
2016-May-20 16:31N 54°04' E 007°45'0 0.0
2016-May-20 15:31N 54°04' E 007°45'0 0.0
2016-May-20 14:33N 54°04' E 007°45'6 6.1
2016-May-20 13:33N 54°08' E 007°37'1211.6
2016-May-20 12:33N 54°09' E 007°17'1614.8
2016-May-20 11:29N 54°09' E 006°50'3015.4
2016-May-20 09:34N 54°07' E 005°60'1616.0
2016-May-20 08:33N 54°05' E 005°33'1616.1
2016-May-20 07:34N 54°02' E 005°06'17114.9
2016-May-19 20:05N 51°40' E 002°28'814.2
2016-May-19 19:33N 51°34' E 002°21'1413.7
2016-May-19 18:34N 51°23' E 002°07'1312.6
2016-May-19 17:34N 51°12' E 001°59'1413.6
2016-May-19 16:33N 51°04' E 001°41'1513.8
2016-May-19 15:30N 50°53' E 001°27'4813.9
2016-May-19 12:05N 50°25' E 000°25'814.7
2016-May-19 11:33N 50°23' E 000°14'1515.0
2016-May-19 10:33N 50°18' W 000°09'10317.1
2016-May-19 04:33N 49°50' W 002°42'1816.5
2016-May-19 03:29N 49°46' W 003°09'1516.0
2016-May-19 02:33N 49°42' W 003°31'  
Track history (hours):
 
Tides and Currents Weather Stations Pressure Air Temp Water Temp Dewpoint Dewpoint Depression Visibility Wind Speed Wind Dir Waves Ship Positions

Jbu Maas

Last reported at 2016-May-27 17:30 UTC. Time now 2016-May-27 18:10 UTC.
Position N 51°20' E 002°34'.

Length 126 m; draft 5.9 m.

Type: Tanker. MMSI: 372492000.

Date/timePositionNaut miles runAvg speedWind from/ knotsBaromVisibWave heightAir tempDewpointWater temp
2016-May-27 17:30N 51°20' E 002°34'0 0.0
2016-May-27 16:31N 51°20' E 002°34'0 0.1
2016-May-27 15:33N 51°20' E 002°34'0 0.0
2016-May-27 14:24N 51°20' E 002°34'0 0.0
2016-May-27 13:33N 51°20' E 002°34'0 0.0
2016-May-27 12:33N 51°20' E 002°33'0 0.0
2016-May-27 11:24N 51°20' E 002°33'0 0.0
2016-May-27 10:30N 51°20' E 002°33'0 0.0
2016-May-27 09:18N 51°20' E 002°33'0 0.0
2016-May-27 05:30N 51°20' E 002°34'0 0.0
2016-May-27 01:30N 51°20' E 002°34'0 0.0
2016-May-27 00:33N 51°20' E 002°33'0 0.0
2016-May-26 23:33N 51°20' E 002°33'0 0.0
2016-May-26 22:33N 51°20' E 002°33'0 0.0
2016-May-26 21:33N 51°20' E 002°33'0 0.0
2016-May-26 20:33N 51°20' E 002°33'0 0.0
2016-May-26 19:33N 51°20' E 002°33'0 0.0
2016-May-26 18:33N 51°20' E 002°33'0 0.1
2016-May-26 17:21N 51°20' E 002°34'0 0.0
2016-May-26 16:33N 51°20' E 002°34'0 0.0
2016-May-26 15:33N 51°20' E 002°34'0 0.1
2016-May-26 14:30N 51°20' E 002°34'0 0.0
2016-May-26 13:33N 51°20' E 002°34'0 0.0
2016-May-26 12:33N 51°20' E 002°33'0 0.0
2016-May-26 11:27N 51°20' E 002°33'0 0.0
2016-May-26 07:21N 51°20' E 002°33'0 0.1
2016-May-26 05:15N 51°20' E 002°34'0 0.0
2016-May-26 02:06N 51°20' E 002°34'0 0.0
2016-May-25 17:12N 51°20' E 002°34'0 0.0
2016-May-25 04:06N 51°20' E 002°34'0 0.0
2016-May-24 16:06N 51°20' E 002°34'0 0.0
2016-May-24 15:09N 51°20' E 002°34'0 0.1
2016-May-24 14:18N 51°20' E 002°34'4 0.6
2016-May-24 07:06N 51°24' E 002°33'2 0.2
2016-May-23 21:21N 51°26' E 002°35'0 0.0
2016-May-23 20:33N 51°26' E 002°35'1 0.5
2016-May-23 19:29N 51°25' E 002°35'6 6.2
2016-May-23 18:33N 51°21' E 002°28'1413.6
2016-May-23 17:33N 51°19' E 002°07'1111.0
2016-May-23 16:33N 51°29' E 001°59'18814.4
2016-May-23 03:27N 54°04' E 004°55'1516.6
2016-May-23 02:33N 54°06' E 005°20'1716.6
2016-May-23 01:33N 54°09' E 005°48'1816.3
2016-May-23 00:26N 54°11' E 006°18'1415.9
2016-May-22 23:33N 54°12' E 006°43'1515.3
2016-May-22 22:33N 54°12' E 007°09'1515.2
2016-May-22 21:33N 54°12' E 007°35'1514.5
2016-May-22 20:34N 54°05' E 007°56'1312.9
2016-May-22 19:34N 54°00' E 008°16'1716.6
2016-May-22 18:32N 53°53' E 008°43'1616.3
2016-May-22 17:34N 53°53' E 009°09'1413.8
2016-May-22 16:33N 53°44' E 009°27'4 3.9
2016-May-22 15:33N 53°40' E 009°30'0 0.0
2016-May-22 14:33N 53°40' E 009°30'1 1.3
2016-May-22 13:30N 53°39' E 009°31'0 0.0
2016-May-22 12:24N 53°39' E 009°31'0 0.0
2016-May-22 11:33N 53°39' E 009°31'0 0.0
2016-May-22 10:33N 53°39' E 009°31'0 0.0
2016-May-22 09:33N 53°39' E 009°31'0 0.0
2016-May-22 08:30N 53°39' E 009°31'0 0.0
2016-May-22 07:30N 53°39' E 009°31'0 0.0
2016-May-22 06:30N 53°39' E 009°31'0 0.0
2016-May-22 05:33N 53°39' E 009°31'0 0.0
2016-May-22 04:33N 53°39' E 009°31'0 0.0
2016-May-22 03:33N 53°39' E 009°31'0 0.0
2016-May-22 02:30N 53°39' E 009°31'0 0.0
2016-May-22 01:30N 53°39' E 009°31'0 0.0
2016-May-22 00:30N 53°39' E 009°31'0 0.0
2016-May-21 23:33N 53°39' E 009°31'0 0.0
2016-May-21 22:33N 53°39' E 009°31'0 0.0
2016-May-21 21:33N 53°39' E 009°31'0 0.0
2016-May-21 20:33N 53°39' E 009°31'0 0.0
2016-May-21 19:30N 53°39' E 009°31'0 0.1
2016-May-21 18:34N 53°39' E 009°31'9 8.9
2016-May-21 17:33N 53°47' E 009°23'1010.4
2016-May-21 16:33N 53°53' E 009°09'1110.8
2016-May-21 15:33N 53°50' E 008°51'1010.2
2016-May-21 14:33N 53°57' E 008°38'1313.4
2016-May-21 13:33N 53°60' E 008°16'1111.2
2016-May-21 12:33N 54°01' E 007°57'5 4.8
2016-May-21 11:33N 54°03' E 007°50'3 2.6
2016-May-21 10:31N 54°04' E 007°45'0 0.0
2016-May-21 09:31N 54°04' E 007°45'0 0.0
2016-May-21 08:28N 54°04' E 007°45'0 0.0
2016-May-21 07:28N 54°04' E 007°45'0 0.1
2016-May-21 06:31N 54°04' E 007°45'0 0.1
2016-May-21 05:31N 54°04' E 007°45'0 0.0
2016-May-21 04:31N 54°04' E 007°45'0 0.0
2016-May-21 03:31N 54°04' E 007°45'0 0.0
2016-May-21 02:31N 54°04' E 007°45'0 0.0
2016-May-21 01:31N 54°04' E 007°45'0 0.0
2016-May-21 00:31N 54°04' E 007°45'0 0.1
2016-May-20 23:31N 54°04' E 007°45'0 0.1
2016-May-20 22:31N 54°04' E 007°45'0 0.0
2016-May-20 21:28N 54°04' E 007°45'0 0.0
2016-May-20 20:31N 54°04' E 007°45'0 0.0
2016-May-20 19:31N 54°04' E 007°45'0 0.0
2016-May-20 18:31N 54°04' E 007°45'0 0.1
2016-May-20 17:28N 54°04' E 007°45'0 0.1
2016-May-20 16:31N 54°04' E 007°45'0 0.0
2016-May-20 15:31N 54°04' E 007°45'0 0.0
2016-May-20 14:33N 54°04' E 007°45'6 6.1
2016-May-20 13:33N 54°08' E 007°37'1211.6
2016-May-20 12:33N 54°09' E 007°17'1614.8
2016-May-20 11:29N 54°09' E 006°50'3015.4
2016-May-20 09:34N 54°07' E 005°60'1616.0
2016-May-20 08:33N 54°05' E 005°33'1616.1
2016-May-20 07:34N 54°02' E 005°06'17114.9
2016-May-19 20:05N 51°40' E 002°28'814.2
2016-May-19 19:33N 51°34' E 002°21'1413.7
2016-May-19 18:34N 51°23' E 002°07'1312.6
2016-May-19 17:34N 51°12' E 001°59'1413.6
2016-May-19 16:33N 51°04' E 001°41'1513.8
2016-May-19 15:30N 50°53' E 001°27'4813.9
2016-May-19 12:05N 50°25' E 000°25'814.7
2016-May-19 11:33N 50°23' E 000°14'1515.0
2016-May-19 10:33N 50°18' W 000°09'10317.1
2016-May-19 04:33N 49°50' W 002°42'1816.5
2016-May-19 03:29N 49°46' W 003°09'1516.0
2016-May-19 02:33N 49°42' W 003°31'  

Dump ship's entire track history